createdAt,value
2018-05-08T00:00:01.615Z,3.87
2018-05-08T00:02:29.196Z,3.97
2018-05-08T00:04:56.549Z,4.17
2018-05-08T00:07:23.843Z,3.60
2018-05-08T00:09:51.343Z,4.30
2018-05-08T00:12:18.625Z,3.23
2018-05-08T00:14:46.163Z,3.60
2018-05-08T00:17:13.472Z,3.50
2018-05-08T00:19:40.810Z,3.33
2018-05-08T00:22:08.137Z,3.20
2018-05-08T00:24:35.746Z,3.73
2018-05-08T00:27:03.305Z,3.50
2018-05-08T00:29:30.672Z,3.30
2018-05-08T00:31:58.123Z,3.77
2018-05-08T00:34:25.516Z,3.87
2018-05-08T00:36:53.013Z,3.20
2018-05-08T00:39:25.273Z,3.70
2018-05-08T00:41:52.765Z,3.30
2018-05-08T00:44:20.041Z,3.30
2018-05-08T00:46:47.311Z,2.83
2018-05-08T00:49:14.656Z,3.03
2018-05-08T00:51:41.984Z,3.23
2018-05-08T00:54:09.288Z,3.20
2018-05-08T00:56:36.641Z,3.30
2018-05-08T00:59:04.063Z,3.10
2018-05-08T01:01:31.696Z,3.37
2018-05-08T01:03:59.203Z,3.13
2018-05-08T01:06:26.475Z,3.60
2018-05-08T01:08:54.668Z,3.40
2018-05-08T01:11:22.065Z,3.40
2018-05-08T01:13:49.371Z,2.77
2018-05-08T01:16:16.715Z,3.07
2018-05-08T01:18:44.042Z,3.70
2018-05-08T01:21:11.337Z,4.00
2018-05-08T01:23:38.657Z,3.13
2018-05-08T01:26:06.012Z,2.30
2018-05-08T01:28:33.429Z,2.90
2018-05-08T01:31:00.766Z,3.27
2018-05-08T01:33:28.077Z,3.27
2018-05-08T01:35:55.382Z,3.50
2018-05-08T01:38:22.670Z,2.90
2018-05-08T01:40:50.170Z,2.87
2018-05-08T01:43:17.595Z,3.37
2018-05-08T01:45:44.824Z,3.60
2018-05-08T01:48:12.115Z,4.33
2018-05-08T01:50:39.545Z,4.50
2018-05-08T01:53:06.902Z,4.27
2018-05-08T01:55:34.380Z,3.73
2018-05-08T01:58:01.745Z,3.17
2018-05-08T02:00:29.235Z,3.47
2018-05-08T02:02:56.502Z,3.83
2018-05-08T02:05:23.803Z,3.50
2018-05-08T02:07:51.113Z,3.50
2018-05-08T02:10:18.382Z,3.80
2018-05-08T02:12:45.722Z,3.67
2018-05-08T02:15:13.028Z,4.00
2018-05-08T02:17:40.913Z,3.40
2018-05-08T02:20:08.200Z,3.83
2018-05-08T02:22:35.603Z,3.77
2018-05-08T02:25:02.941Z,3.90
2018-05-08T02:27:30.463Z,3.20
2018-05-08T02:29:57.930Z,3.50
2018-05-08T02:32:25.305Z,3.50
2018-05-08T02:34:52.554Z,4.17
2018-05-08T02:37:19.953Z,4.47
2018-05-08T02:39:47.297Z,3.50
2018-05-08T02:42:14.593Z,4.00
2018-05-08T02:44:41.857Z,3.90
2018-05-08T02:47:09.228Z,4.50
2018-05-08T02:49:36.648Z,4.00
2018-05-08T02:52:04.130Z,3.97
2018-05-08T02:54:31.591Z,6.50
2018-05-08T02:56:58.995Z,5.10
2018-05-08T02:59:26.359Z,4.13
2018-05-08T03:01:53.966Z,3.83
2018-05-08T03:04:21.321Z,4.27
2018-05-08T03:06:48.640Z,4.37
2018-05-08T03:09:15.960Z,5.77
2018-05-08T03:11:43.215Z,5.50
2018-05-08T03:14:10.529Z,4.90
2018-05-08T03:16:37.838Z,4.97
2018-05-08T03:19:05.198Z,4.53
2018-05-08T03:21:32.865Z,3.60
2018-05-08T03:24:00.369Z,4.87
2018-05-08T03:26:27.747Z,4.90
2018-05-08T03:28:55.070Z,4.00
2018-05-08T03:31:22.372Z,4.00
2018-05-08T03:33:49.807Z,4.40
2018-05-08T03:36:17.102Z,4.70
2018-05-08T03:38:44.407Z,4.27
2018-05-08T03:41:11.707Z,5.07
2018-05-08T03:43:39.043Z,3.90
2018-05-08T03:46:06.540Z,4.83
2018-05-08T03:48:34.015Z,5.13
2018-05-08T03:51:01.352Z,4.53
2018-05-08T03:53:28.765Z,4.60
2018-05-08T03:55:56.146Z,4.60
2018-05-08T03:58:23.462Z,5.20
2018-05-08T04:00:56.746Z,4.73
2018-05-08T04:03:30.081Z,6.20
2018-05-08T04:05:57.458Z,5.47
2018-05-08T04:08:30.982Z,4.70
2018-05-08T04:10:58.740Z,3.63
2018-05-08T04:13:26.390Z,3.87
2018-05-08T04:15:53.670Z,4.50
2018-05-08T04:18:21.639Z,4.80
2018-05-08T04:20:49.039Z,4.50
2018-05-08T04:23:16.357Z,5.00
2018-05-08T04:25:43.770Z,5.83
2018-05-08T04:28:11.398Z,4.60
2018-05-08T04:30:38.814Z,4.40
2018-05-08T04:33:06.301Z,4.67
2018-05-08T04:35:33.765Z,4.30
2018-05-08T04:38:01.158Z,3.93
2018-05-08T04:40:28.748Z,5.53
2018-05-08T04:42:56.134Z,5.27
2018-05-08T04:45:23.556Z,6.17
2018-05-08T04:47:50.863Z,4.50
2018-05-08T04:50:18.412Z,6.30
2018-05-08T04:52:45.766Z,4.70
2018-05-08T04:55:13.105Z,4.87
2018-05-08T04:57:41.303Z,5.63
2018-05-08T05:00:08.811Z,7.20
2018-05-08T05:02:36.343Z,4.17
2018-05-08T05:05:03.731Z,4.97
2018-05-08T05:10:04.410Z,4.00
2018-05-08T05:12:32.061Z,3.70
2018-05-08T05:15:00.459Z,4.97
2018-05-08T05:17:27.954Z,5.10
2018-05-08T05:19:55.557Z,4.80
2018-05-08T05:22:24.326Z,4.77
2018-05-08T05:24:53.583Z,3.50
2018-05-08T05:27:21.135Z,4.17
2018-05-08T05:29:48.452Z,4.50
2018-05-08T05:32:15.855Z,4.40
2018-05-08T05:34:43.226Z,4.87
2018-05-08T05:37:12.772Z,5.13
2018-05-08T05:39:40.159Z,4.30
2018-05-08T05:42:07.641Z,4.87
2018-05-08T05:44:35.748Z,4.53
2018-05-08T05:47:03.160Z,5.50
2018-05-08T05:49:34.667Z,4.50
2018-05-08T05:52:03.093Z,4.50
2018-05-08T05:54:30.871Z,4.13
2018-05-08T05:56:59.115Z,4.50
2018-05-08T05:59:26.459Z,4.03
2018-05-08T06:04:27.644Z,3.60
2018-05-08T06:06:58.274Z,5.20
2018-05-08T06:09:25.676Z,4.53
2018-05-08T06:11:53.012Z,4.50
2018-05-08T06:14:20.476Z,5.20
2018-05-08T06:16:47.946Z,6.30
2018-05-08T06:19:15.337Z,3.83
2018-05-08T06:21:42.734Z,3.53
2018-05-08T06:24:12.172Z,4.97
2018-05-08T06:26:40.959Z,3.90
2018-05-08T06:29:08.366Z,4.30
2018-05-08T06:34:08.373Z,4.80
2018-05-08T06:42:10.891Z,4.40
2018-05-08T06:44:38.207Z,3.93
2018-05-08T06:47:05.735Z,3.97
2018-05-08T06:59:48.231Z,5.07
2018-05-08T07:02:15.594Z,4.53
2018-05-08T07:04:43.069Z,4.57
2018-05-08T07:07:10.648Z,4.37
2018-05-08T07:12:10.005Z,3.60
2018-05-08T07:19:58.595Z,4.20
2018-05-08T07:25:16.248Z,4.37
2018-05-08T07:32:50.754Z,4.17
2018-05-08T07:40:55.989Z,4.30
2018-05-08T07:43:23.626Z,5.47
2018-05-08T07:45:51.875Z,4.47
2018-05-08T07:48:22.690Z,4.27
2018-05-08T07:55:53.421Z,4.13
2018-05-08T07:58:21.264Z,3.20
2018-05-08T08:06:26.914Z,3.17
2018-05-08T08:08:59.362Z,2.70
2018-05-08T08:11:26.853Z,4.40
2018-05-08T08:13:54.252Z,3.80
2018-05-08T08:16:21.688Z,4.03
2018-05-08T08:26:29.445Z,3.70
2018-05-08T08:31:28.766Z,3.63
2018-05-08T08:33:56.206Z,4.17
2018-05-08T08:36:24.648Z,3.73
2018-05-08T08:38:52.157Z,4.10
2018-05-08T08:43:51.428Z,4.27
2018-05-08T08:46:20.224Z,3.27
2018-05-08T08:48:47.785Z,3.07
2018-05-08T08:51:15.192Z,3.67
2018-05-08T08:53:44.596Z,4.00
2018-05-08T08:56:12.131Z,3.63
2018-05-08T08:58:39.687Z,4.13
2018-05-08T09:01:07.162Z,3.90
2018-05-08T09:08:45.775Z,3.00
2018-05-08T09:11:13.115Z,4.70
2018-05-08T09:13:40.445Z,3.40
2018-05-08T09:18:39.420Z,2.83
2018-05-08T09:23:38.895Z,2.90
2018-05-08T09:26:06.669Z,2.70
2018-05-08T09:28:34.246Z,3.93
2018-05-08T09:33:38.740Z,6.40
2018-05-08T09:46:30.414Z,2.37
2018-05-08T09:48:58.234Z,2.40
2018-05-08T09:51:25.660Z,2.30
2018-05-08T09:53:52.921Z,2.40
2018-05-08T09:56:20.261Z,3.17
2018-05-08T09:58:47.686Z,2.73
2018-05-08T10:01:15.787Z,2.50
2018-05-08T10:03:43.068Z,2.20
2018-05-08T10:06:10.342Z,2.60
2018-05-08T10:08:37.642Z,2.13
2018-05-08T10:11:05.252Z,2.00
2018-05-08T10:13:32.818Z,2.63
2018-05-08T10:16:00.234Z,2.40
2018-05-08T10:18:27.590Z,2.33
2018-05-08T10:20:54.907Z,2.80
2018-05-08T10:23:22.334Z,2.97
2018-05-08T10:25:49.660Z,2.80
2018-05-08T10:28:16.942Z,2.00
2018-05-08T10:30:45.312Z,1.77
2018-05-08T10:33:12.584Z,2.60
2018-05-08T10:35:39.869Z,2.53
2018-05-08T10:38:07.429Z,2.97
2018-05-08T10:40:36.112Z,2.10
2018-05-08T10:43:03.496Z,2.37
2018-05-08T10:45:30.923Z,3.30
2018-05-08T10:47:58.210Z,1.97
2018-05-08T10:50:25.484Z,2.20
2018-05-08T10:52:52.772Z,1.57
2018-05-08T10:55:20.857Z,2.70
2018-05-08T10:57:48.130Z,3.03
2018-05-08T11:00:15.477Z,2.00
2018-05-08T11:02:42.934Z,2.20
2018-05-08T11:05:10.204Z,2.97
2018-05-08T11:07:37.495Z,2.57
2018-05-08T11:10:05.436Z,2.40
2018-05-08T11:12:33.093Z,2.30
2018-05-08T11:15:02.371Z,2.50
2018-05-08T11:17:29.958Z,1.97
2018-05-08T11:19:57.233Z,2.93
2018-05-08T11:22:24.525Z,2.27
2018-05-08T11:24:51.839Z,3.07
2018-05-08T11:27:20.135Z,2.97
2018-05-08T11:29:47.471Z,2.17
2018-05-08T11:32:14.995Z,2.00
2018-05-08T11:34:42.267Z,2.30
2018-05-08T11:37:09.551Z,2.57
2018-05-08T11:39:37.115Z,2.37
2018-05-08T11:42:04.436Z,2.57
2018-05-08T11:44:31.789Z,2.17
2018-05-08T11:46:59.942Z,2.80
2018-05-08T11:49:27.250Z,2.00
2018-05-08T11:51:54.580Z,2.17
2018-05-08T11:54:21.946Z,2.23
2018-05-08T11:56:49.230Z,2.47
2018-05-08T11:59:17.753Z,2.07
2018-05-08T12:01:45.065Z,1.90
2018-05-08T12:04:12.369Z,1.87
2018-05-08T12:06:39.982Z,3.07
2018-05-08T12:09:07.381Z,2.20
2018-05-08T12:11:35.085Z,2.10
2018-05-08T12:14:02.902Z,2.53
2018-05-08T12:16:31.269Z,3.20
2018-05-08T12:18:58.740Z,2.97
2018-05-08T12:21:26.090Z,2.23
2018-05-08T12:23:53.382Z,2.37
2018-05-08T12:26:20.698Z,2.17
2018-05-08T12:28:47.990Z,2.10
2018-05-08T12:31:15.979Z,2.00
2018-05-08T12:33:43.254Z,2.30
2018-05-08T12:36:10.585Z,2.10
2018-05-08T12:38:37.810Z,1.70
2018-05-08T12:41:05.112Z,2.27
2018-05-08T12:43:32.397Z,2.57
2018-05-08T12:46:00.523Z,2.87
2018-05-08T12:48:27.874Z,2.70
2018-05-08T12:50:55.150Z,2.10
2018-05-08T12:53:22.508Z,1.90
2018-05-08T12:55:49.785Z,1.63
2018-05-08T12:58:18.228Z,3.23
2018-05-08T13:00:45.522Z,2.30
2018-05-08T13:03:12.902Z,2.57
2018-05-08T13:05:40.233Z,2.30
2018-05-08T13:08:07.521Z,2.20
2018-05-08T13:10:34.923Z,1.80
2018-05-08T13:13:02.613Z,1.80
2018-05-08T13:15:30.062Z,2.77
2018-05-08T13:17:57.513Z,1.80
2018-05-08T13:20:24.867Z,1.80
2018-05-08T13:22:55.888Z,2.30
2018-05-08T13:25:23.259Z,1.90
2018-05-08T13:27:50.561Z,1.40
2018-05-08T13:30:19.569Z,2.07
2018-05-08T13:32:46.848Z,2.07
2018-05-08T13:35:14.181Z,2.07
2018-05-08T13:37:41.749Z,2.23
2018-05-08T13:40:09.021Z,2.93
2018-05-08T13:42:39.186Z,2.47
2018-05-08T13:45:06.570Z,2.10
2018-05-08T13:47:34.029Z,1.83
2018-05-08T13:50:01.742Z,1.90
2018-05-08T13:52:29.983Z,2.60
2018-05-08T13:54:57.308Z,2.63
2018-05-08T13:57:24.765Z,1.80
2018-05-08T13:59:52.224Z,2.80
2018-05-08T14:02:19.519Z,2.07
2018-05-08T14:04:46.838Z,3.20
2018-05-08T14:07:14.267Z,2.20
2018-05-08T14:09:41.542Z,2.67
2018-05-08T14:12:08.827Z,3.00
2018-05-08T14:14:36.160Z,2.13
2018-05-08T14:17:03.866Z,2.40
2018-05-08T14:19:31.244Z,2.00
2018-05-08T14:21:58.530Z,2.13
2018-05-08T14:24:25.817Z,1.90
2018-05-08T14:26:53.121Z,2.40
2018-05-08T14:29:20.464Z,2.67
2018-05-08T14:31:47.733Z,1.97
2018-05-08T14:34:15.547Z,2.20
2018-05-08T14:36:42.805Z,1.80
2018-05-08T14:39:10.177Z,1.70
2018-05-08T14:41:37.501Z,2.33
2018-05-08T14:44:04.806Z,4.20
2018-05-08T14:46:32.109Z,1.90
2018-05-08T14:48:59.634Z,2.50
2018-05-08T14:51:27.104Z,3.00
2018-05-08T14:53:54.494Z,2.73
2018-05-08T14:56:21.905Z,2.60
2018-05-08T14:58:49.574Z,2.73
2018-05-08T15:01:16.863Z,2.47
2018-05-08T15:03:44.251Z,2.43
2018-05-08T15:06:11.607Z,2.40
2018-05-08T15:08:39.074Z,1.90
2018-05-08T15:11:06.564Z,2.60
2018-05-08T15:13:34.002Z,2.50
2018-05-08T15:16:01.367Z,2.90
2018-05-08T15:18:28.675Z,2.80
2018-05-08T15:20:56.049Z,2.03
2018-05-08T15:23:23.322Z,3.00
2018-05-08T15:25:50.905Z,2.37
2018-05-08T15:28:18.233Z,2.27
2018-05-08T15:30:45.532Z,2.50
2018-05-08T15:33:12.961Z,2.67
2018-05-08T15:35:40.340Z,2.50
2018-05-08T15:38:07.703Z,3.20
2018-05-08T15:40:35.170Z,2.53
2018-05-08T15:43:02.724Z,3.20
2018-05-08T15:45:30.078Z,2.73
2018-05-08T15:47:57.570Z,2.70
2018-05-08T15:50:25.475Z,2.70
2018-05-08T15:52:52.997Z,2.90
2018-05-08T15:55:20.387Z,2.80
2018-05-08T15:57:47.647Z,3.43
2018-05-08T16:00:15.148Z,2.70
2018-05-08T16:02:42.421Z,2.63
2018-05-08T16:05:09.693Z,2.60
2018-05-08T16:07:36.981Z,3.07
2018-05-08T16:10:04.663Z,3.13
2018-05-08T16:12:32.057Z,4.77
2018-05-08T16:15:00.152Z,3.30
2018-05-08T16:17:27.543Z,2.60
2018-05-08T16:19:55.989Z,3.13
2018-05-08T16:22:23.405Z,2.80
2018-05-08T16:24:50.897Z,3.00
2018-05-08T16:27:18.237Z,3.17
2018-05-08T16:29:45.741Z,3.40
2018-05-08T16:32:13.106Z,3.47
2018-05-08T16:34:40.390Z,3.03
2018-05-08T16:37:07.662Z,3.50
2018-05-08T16:39:34.984Z,3.90
2018-05-08T16:42:02.310Z,3.30
2018-05-08T16:44:29.663Z,2.40
2018-05-08T16:46:57.125Z,3.00
2018-05-08T16:49:24.402Z,3.57
2018-05-08T16:51:51.867Z,3.87
2018-05-08T16:54:19.265Z,3.27
2018-05-08T16:56:46.586Z,3.50
2018-05-08T16:59:13.932Z,3.10
2018-05-08T17:01:41.281Z,3.70
2018-05-08T17:04:08.593Z,3.63
2018-05-08T17:06:35.954Z,3.87
2018-05-08T17:09:03.308Z,3.30
2018-05-08T17:11:30.912Z,3.43
2018-05-08T17:13:58.233Z,4.00
2018-05-08T17:16:26.032Z,4.23
2018-05-08T17:18:55.298Z,3.83
2018-05-08T17:21:22.805Z,3.50
2018-05-08T17:23:50.193Z,3.20
2018-05-08T17:26:17.636Z,4.40
2018-05-08T17:28:44.902Z,4.30
2018-05-08T17:31:12.169Z,4.50
2018-05-08T17:33:39.482Z,3.70
2018-05-08T17:36:06.771Z,4.60
2018-05-08T17:38:34.272Z,4.67
2018-05-08T17:41:01.917Z,4.70
2018-05-08T17:43:29.544Z,4.80
2018-05-08T17:45:56.921Z,4.43
2018-05-08T17:48:24.199Z,4.43
2018-05-08T17:50:51.535Z,6.40
2018-05-08T17:53:18.856Z,4.90
2018-05-08T17:55:46.113Z,4.10
2018-05-08T17:58:13.412Z,4.40
2018-05-08T18:00:41.430Z,4.73
2018-05-08T18:03:08.753Z,4.60
2018-05-08T18:05:36.091Z,6.10
2018-05-08T18:08:03.638Z,4.60
2018-05-08T18:10:31.011Z,5.03
2018-05-08T18:12:58.297Z,5.03
2018-05-08T18:15:25.609Z,5.23
2018-05-08T18:17:52.936Z,4.10
2018-05-08T18:20:20.276Z,4.27
2018-05-08T18:22:47.558Z,3.90
2018-05-08T18:28:01.073Z,4.70
2018-05-08T18:33:09.350Z,5.10
2018-05-08T18:35:36.901Z,5.13
2018-05-08T18:51:09.644Z,4.73
2018-05-08T18:58:50.250Z,5.10
2018-05-08T19:03:50.647Z,5.10
2018-05-08T19:06:18.015Z,4.47
2018-05-08T19:08:46.078Z,5.30
2018-05-08T19:11:18.923Z,5.60
2018-05-08T19:13:46.412Z,4.40
2018-05-08T19:19:02.167Z,5.90
2018-05-08T19:21:31.235Z,5.33
2018-05-08T19:26:55.278Z,4.87
2018-05-08T19:29:29.663Z,5.07
2018-05-08T19:37:50.317Z,4.37
2018-05-08T19:42:52.941Z,6.40
2018-05-08T19:45:20.360Z,5.90
2018-05-08T19:48:04.546Z,6.47
2018-05-08T19:50:31.881Z,5.20
2018-05-08T19:53:00.235Z,4.80
2018-05-08T19:55:28.790Z,5.80
2018-05-08T19:57:56.277Z,5.40
2018-05-08T20:00:24.406Z,5.47
2018-05-08T20:05:24.182Z,6.10
2018-05-08T20:07:51.786Z,6.67
2018-05-08T20:10:19.089Z,5.40
2018-05-08T20:12:46.392Z,5.03
2018-05-08T20:15:13.726Z,5.30
2018-05-08T20:17:41.186Z,7.60
2018-05-08T20:20:08.468Z,5.57
2018-05-08T20:22:35.810Z,6.20
2018-05-08T20:25:03.105Z,5.93
2018-05-08T20:30:06.485Z,6.23
2018-05-08T20:32:33.887Z,6.20
2018-05-08T20:35:01.257Z,5.70
2018-05-08T20:37:29.099Z,6.33
2018-05-08T20:39:56.751Z,6.43
2018-05-08T20:42:24.115Z,5.20
2018-05-08T20:44:51.587Z,5.67
2018-05-08T20:47:18.997Z,6.00
2018-05-08T20:49:46.422Z,6.67
2018-05-08T20:54:45.654Z,5.67
2018-05-08T20:57:13.082Z,6.50
2018-05-08T20:59:40.389Z,6.70
2018-05-08T21:02:07.865Z,5.40
2018-05-08T21:07:06.954Z,6.20
2018-05-08T21:09:34.916Z,5.13
2018-05-08T21:12:02.295Z,6.00
2018-05-08T21:17:01.432Z,5.93
2018-05-08T21:19:28.846Z,6.07
2018-05-08T21:24:28.167Z,5.50
2018-05-08T21:29:37.845Z,5.27
2018-05-08T21:32:05.238Z,5.60
2018-05-08T21:34:32.755Z,5.00
2018-05-08T21:37:00.145Z,5.60
2018-05-08T21:39:27.531Z,5.17
2018-05-08T21:41:55.328Z,7.03
2018-05-08T21:44:22.932Z,4.77
2018-05-08T21:46:50.211Z,5.37
2018-05-08T21:49:17.615Z,5.60
2018-05-08T21:51:45.124Z,5.03
2018-05-08T21:54:12.638Z,5.33
2018-05-08T21:56:40.308Z,5.60
2018-05-08T21:59:08.451Z,6.23
2018-05-08T22:01:36.297Z,5.00
2018-05-08T22:04:05.513Z,5.67
2018-05-08T22:06:33.313Z,5.00
2018-05-08T22:09:01.016Z,5.73
2018-05-08T22:11:29.281Z,5.13
2018-05-08T22:13:57.074Z,4.90
2018-05-08T22:16:24.593Z,4.93
2018-05-08T22:18:52.155Z,4.37
2018-05-08T22:21:19.464Z,4.40
2018-05-08T22:26:20.559Z,4.40
2018-05-08T22:28:47.874Z,4.57
2018-05-08T22:31:15.180Z,4.80
2018-05-08T22:33:42.466Z,3.93
2018-05-08T22:36:09.820Z,3.97
2018-05-08T22:38:37.177Z,3.57
2018-05-08T22:41:04.597Z,4.40
2018-05-08T22:43:32.065Z,3.70
2018-05-08T22:45:59.583Z,4.20
2018-05-08T22:48:26.874Z,3.20
2018-05-08T22:50:54.220Z,4.30
2018-05-08T22:53:21.537Z,3.87
2018-05-08T22:55:48.826Z,4.30
2018-05-08T22:58:16.153Z,3.80
2018-05-08T23:00:43.458Z,4.70
2018-05-08T23:03:10.732Z,4.23
2018-05-08T23:05:38.155Z,4.20
2018-05-08T23:08:05.645Z,3.97
2018-05-08T23:10:33.104Z,3.90
2018-05-08T23:13:00.574Z,3.77
2018-05-08T23:15:27.854Z,4.00
2018-05-08T23:17:55.219Z,3.63
2018-05-08T23:20:22.557Z,3.90
2018-05-08T23:22:49.833Z,3.70
2018-05-08T23:25:17.246Z,4.43
2018-05-08T23:27:44.531Z,6.10
2018-05-08T23:30:11.853Z,3.83
2018-05-08T23:32:39.164Z,4.43
2018-05-08T23:35:06.496Z,3.80
2018-05-08T23:37:34.081Z,3.93
2018-05-08T23:40:01.513Z,4.80
2018-05-08T23:42:28.800Z,3.87
2018-05-08T23:44:56.371Z,4.27
2018-05-08T23:47:23.767Z,4.67
2018-05-08T23:49:51.089Z,3.80
2018-05-08T23:52:18.379Z,5.10
2018-05-08T23:54:45.685Z,4.50
2018-05-08T23:57:12.989Z,4.70
2018-05-08T23:59:40.262Z,3.50
